Flight Track Log - Related Links

Times and Time Zones

All times are in EDT time to prevent confusion due to time zone crossing. See the CES2378 flight status page for this flight to view local times or setup timezone preferences in your user account.

Time Position Orientation Groundspeed Altitude Reporting Facility
EDT Latitude Longitude Course Direction KTS MPH feet Rate Location/Type
Sun 09:59:00 PM 33.1459 104.5440 68° East  Level Estimated
Sun 10:00:00 PM 33.1745 104.6304 68° East  Level Estimated
Sun 10:01:00 PM 33.2030 104.7169 68° East  Level Estimated
Sun 10:02:00 PM 33.2315 104.8034 69° East  Level Estimated
Sun 10:03:00 PM 33.2598 104.8900 69° East  Level Estimated
Sun 10:04:00 PM 33.2882 104.9766 69° East  Level Estimated
Sun 10:05:00 PM 33.3164 105.0633 69° East  Level Estimated
Sun 10:06:00 PM 33.3447 105.1500 69° East  Level Estimated
Sun 10:07:00 PM 33.3728 105.2368 69° East  Level Estimated
Sun 10:08:00 PM 33.4009 105.3237 69° East  Level Estimated
Sun 10:09:00 PM 33.4289 105.4106 69° East  Level Estimated
Sun 10:10:00 PM 33.4569 105.4976 69° East  Level Estimated
Sun 10:11:00 PM 33.4848 105.5846 69° East  Level Estimated
Sun 10:12:00 PM 33.5126 105.6717 69° East  Level Estimated
Sun 10:13:00 PM 33.5404 105.7588 69° East  Level Estimated
Sun 10:14:00 PM 33.5681 105.8460 69° East  Level Estimated
Sun 10:15:00 PM 33.5958 105.9333 69° East  Level Estimated
Sun 10:16:00 PM 33.6234 106.0206 69° East  Level Estimated
Sun 10:17:00 PM 33.6509 106.1079 69° East  Level Estimated
Sun 10:18:00 PM 33.6784 106.1953 69° East  Level Estimated
Sun 10:19:00 PM 33.7058 106.2828 69° East  Level Estimated
Sun 10:20:00 PM 33.7332 106.3703 69° East  Level Estimated
Sun 10:21:00 PM 33.7604 106.4579 69° East  Level Estimated
Sun 10:22:00 PM 33.7877 106.5456 69° East  Level Estimated
Sun 10:23:00 PM 33.8148 106.6333 70° East  Level Estimated
Sun 10:24:00 PM 33.8419 106.7210 70° East  Level Estimated
Sun 10:25:00 PM 33.8690 106.8088 70° East  Level Estimated
Sun 10:26:00 PM 33.8960 106.8967 70° East  Level Estimated
Sun 10:27:00 PM 33.9229 106.9846 70° East  Level Estimated
Sun 10:28:00 PM 33.9497 107.0726 70° East  Level Estimated
Sun 10:29:00 PM 33.9765 107.1606 70° East  Level Estimated
Sun 10:30:00 PM 34.0033 107.2487 70° East  Level Estimated
Sun 10:31:00 PM 34.0299 107.3368 70° East  Level Estimated
Sun 10:32:00 PM 34.0565 107.4250 70° East  Level Estimated
Sun 10:33:00 PM 34.0831 107.5133 70° East  Level Estimated
Sun 10:34:00 PM 34.1096 107.6016 70° East  Level Estimated
Sun 10:35:00 PM 34.1360 107.6899 70° East  Level Estimated
Sun 10:36:00 PM 34.1623 107.7784 70° East  Level Estimated
Sun 10:37:00 PM 34.1886 107.8668 70° East  Level Estimated
Sun 10:38:00 PM 34.2148 107.9554 70° East  Level Estimated
Sun 10:39:00 PM 34.2410 108.0440 70° East  Level Estimated
Sun 10:40:00 PM 34.2671 108.1326 70° East  Level Estimated
Sun 10:41:00 PM 34.2931 108.2213 70° East  Level Estimated
Sun 10:42:00 PM 34.3191 108.3100 70° East  Level Estimated
Sun 10:43:00 PM 34.3450 108.3988 71° East  Level Estimated
Sun 10:44:00 PM 34.3708 108.4877 71° East  Level Estimated
Sun 10:45:00 PM 34.3966 108.5766 71° East  Level Estimated
Sun 10:46:00 PM 34.4223 108.6656 71° East  Level Estimated
Sun 10:47:00 PM 34.4471 108.7516 71° East  Level Estimated
Sun 10:48:00 PM 34.4471 108.7516 121° Southeast  Level Estimated
Sun 10:49:00 PM 34.4471 108.7516 121° Southeast  Level Estimated
Sun 10:50:00 PM 34.4471 108.7516 121° Southeast  Level Estimated
Sun 10:51:00 PM 34.4471 108.7516 121° Southeast  Level Estimated
Sun 10:52:00 PM 34.4471 108.7516 121° Southeast  Level Estimated
Sun 10:53:00 PM 34.4471 108.7516 121° Southeast  Level Estimated
Sun 10:54:00 PM 34.4471 108.7516 121° Southeast  Level Estimated
Sun 10:55:00 PM 34.4471 108.7516 121° Southeast  Level Estimated
Sun 10:56:00 PM 34.4471 108.7516 121° Southeast  Level Estimated
Sun 10:57:00 PM 34.4471 108.7516 121° Southeast  Level Estimated
Sun 10:58:00 PM 34.4471 108.7516 121° Southeast  Level Estimated
Sun 10:59:00 PM 34.4471 108.7516 121° Southeast  Level Estimated
Sun 11:00:00 PM 34.4471 108.7516 121° Southeast  Level Estimated
Sun 11:01:00 PM 34.4471 108.7516 121° Southeast  Level Estimated

Login

Don't have an account? Register now (free) for customized features, flight alerts, and more!